SLOA4: Illinois River nr Siloam Springs AR

                                SHEF ID:       SLOA4     Illinois River South of Siloam S
STATION TYPE:

STAGE RIV-FLOW BAT-LOAD
ft cfs volt
Ccp-Rev Ccp-Rev Ccp-Rev
(America/Chicago)
05/05 00:00 3.62 584 12.44
05/05 01:00 3.62 584 12.42
05/05 02:00 3.63 588 12.40
05/05 03:00 3.62 584 12.38
05/05 04:00 3.62 584 12.36
05/05 05:00 3.63 588 12.34
05/05 06:00 3.64 593 12.32
05/05 07:00 3.64 593 12.30
05/05 08:00 3.65 597 12.36
05/05 09:00 3.65 597 12.92
05/05 10:00 3.67 606 13.43
05/05 11:00 3.69 616 13.28
05/05 12:00 3.69 616 12.99
05/05 13:00 3.72 630 12.97
05/05 14:00 3.83 683 12.86
05/05 15:00 4.24 898 12.86
05/05 16:00 5.07 1425 12.93
05/05 17:00 5.54 1751 12.94
05/05 18:00 5.70 1861 12.94
05/05 19:00 5.64 1819 12.89
05/05 20:00 5.51 1731 12.80
05/05 21:00 5.33 1612 12.57
05/05 22:00 5.15 1483 12.47
05/05 23:00 4.99 1368 12.44
Data processed at Wed 06May2026 04:18 GMT

NOTICE: If you are parsing this page

Please convert to using our Data API. Starting early 2026 we will be migrating to: https://water.usace.army.mil with modern pages rendered in JavaScript. When this migration completes you will no longer be able to scrape this page! CWMSDataAPI (CDA)

Timeseries IDs (TSIDs)

TSIDs used from left to right in the data table
SILO.Stage.Inst.1Hour.0.Ccp-Rev
SILO.Flow.Inst.1Hour.0.Ccp-Rev
SILO.Volt-Battery Load.Inst.1Hour.0.Ccp-Rev

                            

All information presented herein is the property of the government of the United States of America and may be revised or deleted at any time without prior notice. Dissemination of this information without the expressed written consent of the Public Affairs Office, Tulsa District U.S. Army Corps of Engineers is strictly prohibited. These data are gathered electronically and, as presented, have NOT undergone any form of quality control. These data are NOT guaranteed to be valid or correct.